Time;durP1;ratioP1;P1;durP2;ratioP2;P2;SDS_P1;SDS_P2;PMS_P1;PMS_P2;Temp;Humidity;BMP_temperature;BMP_pressure;BME280_temperature;BME280_humidity;BME280_pressure;Samples;Min_cycle;Max_cycle;Signal;HPM_P1;HPM_P2
2022/01/10 00:02:10;;;;;;;8.88;6.03;;;;;;;7.24;100.00;100073.91;5075547;28;20056;-50
2022/01/10 00:04:39;;;;;;;9.07;5.82;;;;;;;7.24;100.00;100076.53;5074941;28;20135;-50
2022/01/10 00:07:08;;;;;;;11.90;6.35;;;;;;;7.24;100.00;100079.19;5075575;28;20068;-51
2022/01/10 00:09:36;;;;;;;10.82;6.40;;;;;;;7.26;100.00;100079.94;5076529;28;20075;-51
2022/01/10 00:12:05;;;;;;;11.95;6.35;;;;;;;7.25;100.00;100078.25;5075428;28;20067;-51
2022/01/10 00:14:36;;;;;;;12.25;5.63;;;;;;;7.24;100.00;100087.94;5074834;28;20056;-49
2022/01/10 00:17:04;;;;;;;10.95;5.53;;;;;;;7.22;100.00;100083.69;5073958;28;20064;-51
2022/01/10 00:19:33;;;;;;;9.55;5.25;;;;;;;7.09;100.00;100082.66;5075236;28;20500;-51
2022/01/10 00:22:02;;;;;;;9.95;5.90;;;;;;;7.00;100.00;100076.94;5075255;28;20057;-51
2022/01/10 00:24:31;;;;;;;11.52;6.35;;;;;;;6.96;100.00;100080.69;5075459;28;20404;-50
2022/01/10 00:26:59;;;;;;;10.18;6.65;;;;;;;6.95;100.00;100086.91;5074825;28;20455;-51
2022/01/10 00:29:27;;;;;;;13.30;7.68;;;;;;;6.90;100.00;100094.19;5074787;28;20135;-51
2022/01/10 00:31:57;;;;;;;13.52;6.80;;;;;;;6.88;100.00;100096.06;5074760;28;20573;-49
2022/01/10 00:34:25;;;;;;;13.77;7.90;;;;;;;6.84;100.00;100103.31;5075042;28;20065;-49
2022/01/10 00:36:54;;;;;;;14.80;7.30;;;;;;;6.85;100.00;100109.41;5074678;28;20059;-50
2022/01/10 00:39:23;;;;;;;13.85;8.18;;;;;;;6.84;100.00;100107.69;5074919;28;20083;-51
2022/01/10 00:41:52;;;;;;;15.98;8.80;;;;;;;6.83;100.00;100113.94;5074575;28;20062;-50
2022/01/10 00:44:25;;;;;;;15.05;9.93;;;;;;;6.81;100.00;100119.28;5075145;28;20063;-51
2022/01/10 00:46:53;;;;;;;15.60;10.02;;;;;;;6.81;100.00;100118.44;5074884;28;20060;-51
2022/01/10 00:49:22;;;;;;;19.80;10.55;;;;;;;6.78;100.00;100123.88;5074479;28;20143;-51
2022/01/10 00:51:50;;;;;;;16.92;10.27;;;;;;;6.78;100.00;100114.16;5074447;28;20052;-49
2022/01/10 00:54:18;;;;;;;16.50;10.40;;;;;;;6.82;100.00;100128.03;5074173;28;20052;-49
2022/01/10 00:56:48;;;;;;;19.92;11.77;;;;;;;6.81;100.00;100127.19;5074701;28;20052;-50
2022/01/10 00:59:16;;;;;;;16.55;10.68;;;;;;;6.86;100.00;100125.16;5075191;28;20393;-52
2022/01/10 01:01:44;;;;;;;20.77;12.25;;;;;;;6.84;100.00;100128.78;5075065;28;20052;-51
2022/01/10 01:04:14;;;;;;;23.20;11.63;;;;;;;6.85;100.00;100128.72;5075164;28;20067;-48
2022/01/10 01:06:43;;;;;;;19.92;12.45;;;;;;;6.84;100.00;100131.44;5074798;28;20056;-50
2022/01/10 01:09:15;;;;;;;19.50;12.02;;;;;;;6.84;100.00;100131.44;5074006;28;20067;-51
2022/01/10 01:12:08;;;;;;;21.88;12.70;;;;;;;6.84;100.00;100136.69;5073970;28;20511;-49
2022/01/10 01:14:51;;;;;;;15.45;10.82;;;;;;;6.83;100.00;100135.84;5074814;28;20068;-51
2022/01/10 01:17:57;;;;;;;18.40;11.35;;;;;;;6.88;100.00;100130.34;5075310;28;20393;-51
2022/01/10 01:20:41;;;;;;;15.95;10.07;;;;;;;6.92;100.00;100136.31;5074765;28;20056;-51
2022/01/10 01:25:57;;;;;;;18.95;11.43;;;;;;;6.81;100.00;100136.88;5074272;28;20056;-50
2022/01/10 01:28:26;;;;;;;20.17;11.55;;;;;;;6.83;100.00;100140.28;5073891;28;20056;-51
2022/01/10 01:30:56;;;;;;;17.98;11.80;;;;;;;6.88;100.00;100148.81;5074829;28;20063;-51
2022/01/10 01:33:25;;;;;;;17.27;11.38;;;;;;;6.92;100.00;100154.78;5074758;28;20076;-49
2022/01/10 01:35:53;;;;;;;20.13;13.20;;;;;;;6.82;100.00;100149.97;5074300;28;20163;-50
2022/01/10 01:38:21;;;;;;;20.45;12.20;;;;;;;6.83;100.00;100153.47;5073999;28;20412;-50
2022/01/10 01:40:56;;;;;;;18.98;12.10;;;;;;;6.85;100.00;100163.00;5075038;28;20378;-51
2022/01/10 01:43:24;;;;;;;18.42;12.27;;;;;;;6.83;100.00;100158.75;5074371;28;20052;-49
2022/01/10 01:45:52;;;;;;;18.52;12.05;;;;;;;6.83;100.00;100158.75;5074719;28;20057;-51
2022/01/10 01:48:22;;;;;;;16.95;11.50;;;;;;;6.85;100.00;100170.91;5074105;28;20056;-48
2022/01/10 01:50:50;;;;;;;18.00;12.27;;;;;;;6.88;100.00;100169.91;5074366;28;20052;-50
2022/01/10 01:53:19;;;;;;;15.20;10.55;;;;;;;6.86;100.00;100175.25;5073776;28;20056;-50
2022/01/10 01:55:47;;;;;;;16.02;11.30;;;;;;;6.89;100.00;100176.84;5074592;28;20408;-51
2022/01/10 01:58:15;;;;;;;17.77;11.18;;;;;;;6.89;100.00;100182.13;5074057;28;20063;-51
2022/01/10 02:00:43;;;;;;;15.80;11.07;;;;;;;6.88;100.00;100185.72;5073718;28;20068;-51
2022/01/10 02:03:12;;;;;;;15.23;10.18;;;;;;;6.84;100.00;100189.44;5073686;28;20056;-51
2022/01/10 02:05:41;;;;;;;14.05;10.25;;;;;;;6.81;100.00;100195.72;5073346;28;20056;-51
2022/01/10 02:08:10;;;;;;;14.57;10.13;;;;;;;6.81;100.00;100200.16;5073629;28;20065;-52
2022/01/10 02:10:38;;;;;;;13.88;9.55;;;;;;;6.78;100.00;100195.88;5073665;28;20052;-50
2022/01/10 02:13:06;;;;;;;13.80;9.48;;;;;;;6.80;100.00;100204.56;5073566;28;20500;-51
2022/01/10 02:15:43;;;;;;;12.57;8.10;;;;;;;6.78;100.00;100200.31;5073318;28;20056;-51
2022/01/10 02:18:11;;;;;;;13.20;8.77;;;;;;;6.80;100.00;100204.56;5073326;28;20059;-49
2022/01/10 02:20:41;;;;;;;13.23;8.25;;;;;;;6.82;100.00;100204.47;5073505;28;20053;-51
2022/01/10 02:23:09;;;;;;;13.60;8.25;;;;;;;6.82;100.00;100217.66;5074098;28;20057;-51
2022/01/10 02:25:38;;;;;;;11.75;7.90;;;;;;;6.81;100.00;100218.63;5073156;28;20513;-51
2022/01/10 02:28:06;;;;;;;9.73;6.72;;;;;;;6.85;100.00;100223.63;5073772;28;20053;-50
2022/01/10 02:30:35;;;;;;;10.70;7.68;;;;;;;6.88;100.00;100218.22;5073721;28;20060;-51
2022/01/10 02:33:04;;;;;;;9.45;7.07;;;;;;;6.88;100.00;100220.00;5074023;28;20059;-51
2022/01/10 02:35:37;;;;;;;9.40;6.45;;;;;;;6.90;100.00;100219.94;5073943;28;20158;-51
2022/01/10 02:38:06;;;;;;;9.52;6.97;;;;;;;6.91;100.00;100222.47;5073128;28;20057;-50
2022/01/10 02:40:35;;;;;;;8.65;5.63;;;;;;;6.92;100.00;100229.44;5075955;28;20058;-51
2022/01/10 02:43:07;;;;;;;8.95;5.78;;;;;;;6.96;100.00;100220.47;5076880;28;20059;-51
2022/01/10 02:45:36;;;;;;;8.18;5.82;;;;;;;6.93;100.00;100225.03;5076527;28;20059;-49
2022/01/10 02:48:05;;;;;;;8.27;5.80;;;;;;;6.92;100.00;100224.16;5076753;28;20131;-51
2022/01/10 02:50:33;;;;;;;9.48;6.07;;;;;;;6.96;100.00;100235.41;5077325;28;20396;-51
2022/01/10 02:53:01;;;;;;;8.57;5.13;;;;;;;6.99;100.00;100236.13;5076682;28;20066;-50
2022/01/10 02:55:31;;;;;;;8.30;5.60;;;;;;;7.07;100.00;100236.56;5076431;28;20053;-51
2022/01/10 02:57:59;;;;;;;8.82;5.45;;;;;;;7.05;100.00;100227.03;5076609;28;20060;-51
2022/01/10 03:00:28;;;;;;;6.35;4.85;;;;;;;7.09;100.00;100247.03;5077716;28;20064;-52
2022/01/10 03:02:58;;;;;;;6.40;4.53;;;;;;;7.14;100.00;100241.53;5076461;28;20581;-49
2022/01/10 03:05:26;;;;;;;6.68;4.53;;;;;;;7.17;100.00;100258.03;5077011;28;20522;-50
2022/01/10 03:07:56;;;;;;;6.55;4.63;;;;;;;7.20;100.00;100262.31;5077065;28;20063;-50
2022/01/10 03:10:24;;;;;;;6.03;4.50;;;;;;;7.24;100.00;100271.78;5076189;28;20071;-51
2022/01/10 03:12:54;;;;;;;6.70;4.45;;;;;;;7.24;100.00;100261.22;5076676;28;20059;-50
2022/01/10 03:15:22;;;;;;;5.85;4.53;;;;;;;7.29;100.00;100269.75;5076824;28;20056;-51
2022/01/10 03:17:50;;;;;;;5.72;4.25;;;;;;;7.30;100.00;100271.47;5076561;28;20060;-50
2022/01/10 03:20:19;;;;;;;6.15;4.00;;;;;;;7.33;100.00;100275.72;5077335;28;20052;-51
2022/01/10 03:22:47;;;;;;;4.88;3.65;;;;;;;7.37;100.00;100280.75;5076117;28;20056;-50
2022/01/10 03:25:15;;;;;;;6.85;4.20;;;;;;;7.39;100.00;100281.53;5075847;28;20064;-51
2022/01/10 03:27:43;;;;;;;5.93;4.25;;;;;;;7.39;100.00;100278.88;5075994;28;20053;-50
2022/01/10 03:30:15;;;;;;;11.52;4.43;;;;;;;7.41;100.00;100284.94;5076022;28;20053;-51
2022/01/10 03:32:43;;;;;;;;;;;;;;;7.43;100.00;100282.19;5077064;28;20130;-49
2022/01/10 03:35:12;;;;;;;5.43;4.30;;;;;;;7.43;100.00;100283.06;5077139;28;19920;-51
2022/01/10 03:37:40;;;;;;;5.95;4.28;;;;;;;7.40;100.00;100277.97;5075876;28;20508;-50
2022/01/10 03:40:09;;;;;;;5.70;4.20;;;;;;;7.43;100.00;100283.06;5076701;28;20064;-51
2022/01/10 03:42:38;;;;;;;5.05;3.97;;;;;;;7.49;100.00;100287.16;5076321;28;20060;-51
2022/01/10 03:45:07;;;;;;;4.07;3.13;;;;;;;7.49;100.00;100287.16;5075490;28;20057;-51
2022/01/10 03:47:37;;;;;;;4.97;3.80;;;;;;;7.50;100.00;100290.66;5076006;28;20071;-50
2022/01/10 03:50:06;;;;;;;5.22;3.20;;;;;;;7.51;100.00;100287.94;5076749;28;20063;-51
2022/01/10 03:52:34;;;;;;;5.40;4.05;;;;;;;7.53;100.00;100295.78;5075593;28;20052;-50
2022/01/10 03:55:03;;;;;;;5.65;4.20;;;;;;;7.56;100.00;100300.91;5075983;28;20057;-50
2022/01/10 03:57:31;;;;;;;4.82;3.80;;;;;;;7.56;100.00;100300.91;5076332;28;20061;-50
2022/01/10 03:59:59;;;;;;;47.40;4.65;;;;;;;7.51;100.00;100313.50;5075433;28;20056;-49
2022/01/10 04:02:30;;;;;;;4.57;3.40;;;;;;;7.51;100.00;100316.97;5075345;28;20063;-49
2022/01/10 04:05:00;;;;;;;4.05;2.95;;;;;;;7.54;100.00;100321.25;5076246;28;20127;-51
2022/01/10 04:07:28;;;;;;;5.50;4.00;;;;;;;7.56;100.00;100322.84;5075146;28;20075;-49
2022/01/10 04:09:57;;;;;;;6.13;3.92;;;;;;;7.58;100.00;100322.78;5075337;28;20057;-51
2022/01/10 04:12:25;;;;;;;8.65;5.00;;;;;;;7.60;100.00;100326.22;5075454;28;20069;-49
2022/01/10 04:14:53;;;;;;;5.70;3.97;;;;;;;7.59;100.00;100327.13;5076283;28;20064;-49
2022/01/10 04:17:22;;;;;;;7.20;5.55;;;;;;;7.57;100.00;100323.72;5075385;28;20056;-51
2022/01/10 04:19:50;;;;;;;8.02;6.00;;;;;;;7.55;100.00;100323.81;5075814;28;20087;-50
2022/01/10 04:22:20;;;;;;;6.43;5.13;;;;;;;7.56;100.00;100325.50;5076129;28;20052;-51
2022/01/10 04:24:48;;;;;;;9.10;5.53;;;;;;;7.58;100.00;100334.22;5075517;28;20052;-50
2022/01/10 04:27:16;;;;;;;7.85;5.80;;;;;;;7.57;100.00;100329.00;5074803;28;20415;-51
2022/01/10 04:29:44;;;;;;;8.82;5.35;;;;;;;7.54;100.00;100339.72;5074849;28;20056;-51
2022/01/10 04:32:13;;;;;;;6.70;4.85;;;;;;;7.58;100.00;100343.91;5074806;28;20095;-49
2022/01/10 04:34:43;;;;;;;10.43;6.40;;;;;;;7.58;100.00;100344.78;5075678;28;20072;-50
2022/01/10 04:37:11;;;;;;;8.30;6.25;;;;;;;7.58;100.00;100349.19;5075003;28;20056;-49
2022/01/10 04:39:41;;;;;;;6.97;5.13;;;;;;;7.56;100.00;100351.91;5074966;28;20057;-49
2022/01/10 04:42:10;;;;;;;8.48;5.88;;;;;;;7.58;100.00;100347.41;5074626;28;20063;-49
2022/01/10 04:44:38;;;;;;;7.63;5.30;;;;;;;7.60;100.00;100353.47;5075000;28;20064;-49
2022/01/10 04:47:06;;;;;;;6.65;5.25;;;;;;;7.62;100.00;100363.94;5074450;28;20067;-51
2022/01/10 04:49:57;;;;;;;7.35;5.78;;;;;;;7.65;100.00;100357.63;5074488;28;20056;-49
2022/01/10 04:52:23;;;;;;;10.35;5.45;;;;;;;7.65;100.00;100369.06;5074435;28;20057;-52
2022/01/10 04:54:53;;;;;;;7.78;6.07;;;;;;;7.68;100.00;100365.41;5075362;28;20401;-52
2022/01/10 04:57:22;;;;;;;8.52;6.32;;;;;;;7.67;100.00;100366.34;5074383;28;20075;-51
2022/01/10 04:59:50;;;;;;;8.85;5.85;;;;;;;7.62;100.00;100350.75;5074674;28;20411;-51
2022/01/10 05:02:19;;;;;;;8.02;6.13;;;;;;;7.65;100.00;100369.06;5075078;28;20139;-50
2022/01/10 05:04:47;;;;;;;9.43;6.85;;;;;;;7.62;100.00;100371.88;5073838;28;20053;-48
2022/01/10 05:07:16;;;;;;;8.30;5.43;;;;;;;7.63;100.00;100373.56;5074493;28;20060;-51
2022/01/10 05:09:44;;;;;;;10.43;6.65;;;;;;;7.65;100.00;100377.00;5074057;28;20064;-51
2022/01/10 05:12:14;;;;;;;8.70;6.05;;;;;;;7.63;100.00;100384.09;5074523;28;20068;-51
2022/01/10 05:14:42;;;;;;;8.50;6.03;;;;;;;7.62;100.00;100379.78;5074608;28;20056;-49
2022/01/10 05:17:11;;;;;;;8.50;6.15;;;;;;;7.62;100.00;100385.91;5074128;28;20542;-51
2022/01/10 05:19:39;;;;;;;9.77;7.07;;;;;;;7.62;100.00;100398.25;5074124;28;20059;-49
2022/01/10 05:22:08;;;;;;;9.50;6.43;;;;;;;7.60;100.00;100394.84;5074966;28;20127;-50
2022/01/10 05:24:36;;;;;;;10.23;6.70;;;;;;;7.62;100.00;100401.75;5074715;28;20071;-51
2022/01/10 05:27:05;;;;;;;8.57;5.97;;;;;;;7.64;100.00;100401.66;5073957;28;20064;-49
2022/01/10 05:29:35;;;;;;;9.02;6.70;;;;;;;7.62;100.00;100404.38;5074331;28;20075;-49
2022/01/10 05:32:04;;;;;;;8.18;6.28;;;;;;;7.60;100.00;100403.63;5074294;28;20056;-49
2022/01/10 05:34:32;;;;;;;11.70;6.50;;;;;;;7.55;100.00;100400.34;5074065;28;20060;-50
2022/01/10 05:37:00;;;;;;;9.00;6.38;;;;;;;7.67;100.00;100414.72;5073927;28;20057;-49
2022/01/10 05:39:28;;;;;;;10.10;7.20;;;;;;;7.69;100.00;100409.34;5075038;28;20385;-50
2022/01/10 05:41:56;;;;;;;8.25;6.03;;;;;;;7.69;100.00;100415.47;5073892;28;20431;-51
2022/01/10 05:44:25;;;;;;;8.18;6.15;;;;;;;7.71;100.00;100418.03;5074542;28;20056;-49
2022/01/10 05:46:54;;;;;;;9.63;6.82;;;;;;;7.73;100.00;100432.91;5074082;28;20067;-50
2022/01/10 05:49:27;;;;;;;12.80;8.77;;;;;;;7.66;100.00;100426.19;5073833;28;20067;-51
2022/01/10 05:51:55;;;;;;;15.40;8.93;;;;;;;7.59;100.00;100433.56;5074239;28;20059;-49
2022/01/10 05:54:23;;;;;;;12.57;7.93;;;;;;;7.65;100.00;100447.41;5074454;28;20053;-50
2022/01/10 05:56:52;;;;;;;11.27;8.00;;;;;;;7.67;100.00;100449.03;5073755;28;20072;-49
2022/01/10 05:59:21;;;;;;;9.40;7.07;;;;;;;7.71;100.00;100447.94;5074016;28;20068;-49
2022/01/10 06:01:49;;;;;;;9.23;6.82;;;;;;;7.72;100.00;100452.28;5074522;28;20057;-49
2022/01/10 06:04:19;;;;;;;10.55;7.07;;;;;;;7.74;100.00;100455.72;5073747;28;20470;-51
2022/01/10 06:06:47;;;;;;;17.88;8.02;;;;;;;7.76;100.00;100461.75;5073607;28;20056;-51
2022/01/10 06:09:15;;;;;;;10.40;6.88;;;;;;;7.78;100.00;100467.84;5073832;28;20071;-51
2022/01/10 06:11:43;;;;;;;10.85;7.30;;;;;;;7.80;100.00;100481.81;5074217;28;20064;-50
2022/01/10 06:14:12;;;;;;;9.80;7.07;;;;;;;7.81;100.00;100478.22;5075010;28;20053;-49
2022/01/10 06:16:40;;;;;;;10.18;6.50;;;;;;;7.85;100.00;100483.34;5077682;28;20060;-50
2022/01/10 06:19:08;;;;;;;10.88;6.95;;;;;;;7.87;100.00;100492.03;5077355;28;20057;-50
2022/01/10 06:21:38;;;;;;;10.50;7.05;;;;;;;7.88;100.00;100493.75;5077640;28;20057;-51
2022/01/10 06:24:06;;;;;;;11.38;7.00;;;;;;;7.87;100.00;100492.03;5076988;28;20059;-49
2022/01/10 06:26:34;;;;;;;8.30;6.68;;;;;;;7.88;100.00;100491.97;5077465;28;20060;-49
2022/01/10 06:29:03;;;;;;;8.73;6.07;;;;;;;7.91;100.00;100498.88;5077641;28;20182;-49
2022/01/10 06:31:32;;;;;;;10.43;6.90;;;;;;;7.92;100.00;100495.34;5077388;28;20056;-51
2022/01/10 06:34:00;;;;;;;8.55;5.97;;;;;;;7.95;100.00;100495.16;5077055;28;20462;-48
2022/01/10 06:36:28;;;;;;;13.32;7.50;;;;;;;7.98;100.00;100505.56;5077263;28;20083;-49
2022/01/10 06:38:58;;;;;;;13.43;6.38;;;;;;;8.00;100.00;100503.69;5077242;28;20420;-49
2022/01/10 06:41:26;;;;;;;17.50;9.30;;;;;;;8.01;100.00;100502.75;5077303;28;20445;-51
2022/01/10 06:43:54;;;;;;;16.30;8.30;;;;;;;8.04;100.00;100505.25;5077119;28;20424;-49
2022/01/10 06:46:23;;;;;;;11.90;8.13;;;;;;;8.06;100.00;100507.81;5077094;28;20405;-49
2022/01/10 06:48:51;;;;;;;16.25;10.00;;;;;;;8.09;100.00;100503.22;5076983;28;20094;-51
2022/01/10 06:51:19;;;;;;;16.52;10.85;;;;;;;8.13;100.00;100502.13;5076638;28;20052;-49
2022/01/10 06:53:47;;;;;;;15.98;9.50;;;;;;;8.13;100.00;100511.84;5076673;28;20049;-49
2022/01/10 06:56:17;;;;;;;13.07;7.82;;;;;;;8.14;100.00;100517.06;5076846;28;20052;-49
2022/01/10 06:58:45;;;;;;;10.75;7.35;;;;;;;8.13;100.00;100519.78;5077010;28;20064;-49
2022/01/10 07:01:17;;;;;;;10.27;6.20;;;;;;;8.12;100.00;100532.13;5076933;28;20064;-49
2022/01/10 07:03:46;;;;;;;13.98;8.75;;;;;;;8.12;100.00;100539.19;5076402;28;20059;-51
2022/01/10 07:06:14;;;;;;;10.50;7.07;;;;;;;8.10;100.00;100539.28;5076765;28;20084;-52
2022/01/10 07:08:42;;;;;;;8.85;6.30;;;;;;;8.10;100.00;100547.22;5076551;28;20061;-50
2022/01/10 07:11:11;;;;;;;11.85;6.35;;;;;;;8.09;100.00;100550.78;5076701;28;20071;-49
2022/01/10 07:13:40;;;;;;;10.18;6.35;;;;;;;8.13;100.00;100562.03;5076614;28;20068;-49
2022/01/10 07:16:09;;;;;;;9.07;6.18;;;;;;;8.07;100.00;100546.50;5076247;28;20057;-51
2022/01/10 07:18:38;;;;;;;12.45;7.32;;;;;;;8.13;100.00;100568.19;5076450;28;20067;-50
2022/01/10 07:21:06;;;;;;;14.27;5.72;;;;;;;8.23;100.00;100570.38;5076037;28;20052;-49
2022/01/10 07:23:34;;;;;;;14.50;4.45;;;;;;;8.33;100.00;100571.59;5076400;28;20052;-50
2022/01/10 07:26:02;;;;;;;20.75;4.78;;;;;;;8.63;100.00;100570.97;5075377;28;20052;-49
2022/01/10 07:28:31;;;;;;;27.30;7.97;;;;;;;8.86;100.00;100573.22;5075955;28;20056;-50
2022/01/10 07:31:00;;;;;;;21.55;4.85;;;;;;;8.99;100.00;100575.19;5076262;28;20110;-49
2022/01/10 07:33:29;;;;;;;20.35;4.93;;;;;;;9.10;100.00;100572.84;5075914;28;20057;-51
2022/01/10 07:36:00;;;;;;;;;;;;;;;9.21;100.00;100575.75;5076049;28;20060;-51
2022/01/10 07:38:35;;;;;;;24.75;4.28;;;;;;;9.35;100.00;100590.00;5076119;28;19920;-50
2022/01/10 07:41:04;;;;;;;31.17;4.85;;;;;;;9.38;100.00;100584.53;5076461;28;20053;-49
2022/01/10 07:43:32;;;;;;;32.78;5.35;;;;;;;9.50;100.00;100594.44;5075694;28;20057;-50
2022/01/10 07:46:02;;;;;;;33.92;5.93;;;;;;;9.57;100.00;100598.44;5075913;28;20060;-49
2022/01/10 07:48:33;;;;;;;28.42;5.97;;;;;;;9.51;100.00;100608.53;5076162;28;20056;-49
2022/01/10 07:51:03;;;;;;;40.67;6.70;;;;;;;9.54;100.00;100614.50;5076628;28;20065;-49
2022/01/10 07:53:31;;;;;;;29.30;5.90;;;;;;;9.55;100.00;100618.88;5075843;28;20063;-51
2022/01/10 07:55:59;;;;;;;42.67;6.82;;;;;;;9.66;100.00;100624.41;5075399;28;20052;-49
2022/01/10 07:58:27;;;;;;;31.98;4.70;;;;;;;9.67;100.00;100628.75;5075656;28;20056;-49
2022/01/10 08:00:56;;;;;;;36.15;5.95;;;;;;;9.72;100.00;100639.13;5076542;28;20182;-51
2022/01/10 08:03:26;;;;;;;38.72;6.50;;;;;;;9.75;100.00;100635.41;5075623;28;20053;-49
2022/01/10 08:05:54;;;;;;;41.35;6.05;;;;;;;9.79;100.00;100643.13;5075324;28;20060;-50
2022/01/10 08:08:22;;;;;;;34.42;5.45;;;;;;;9.82;100.00;100648.25;5075407;28;20064;-49
2022/01/10 08:10:51;;;;;;;40.95;5.20;;;;;;;9.80;100.00;100654.56;5076289;28;20048;-52
2022/01/10 08:13:19;;;;;;;47.67;6.18;;;;;;;9.81;100.00;100658.94;5075959;28;20065;-50
2022/01/10 08:15:47;;;;;;;31.80;5.00;;;;;;;9.84;100.00;100666.69;5075166;28;20057;-49
2022/01/10 08:18:15;;;;;;;40.10;5.57;;;;;;;9.88;100.00;100670.88;5075072;28;20139;-49
2022/01/10 08:20:45;;;;;;;37.38;5.20;;;;;;;9.90;100.00;100676.09;5074980;28;20056;-51
2022/01/10 08:23:14;;;;;;;33.50;5.57;;;;;;;9.92;100.00;100679.50;5075840;28;20052;-50
2022/01/10 08:25:42;;;;;;;37.28;5.88;;;;;;;9.93;100.00;100686.53;5076110;28;20369;-52
2022/01/10 08:28:10;;;;;;;34.17;5.28;;;;;;;9.94;100.00;100688.25;5075696;28;20052;-49
2022/01/10 08:30:38;;;;;;;35.55;4.95;;;;;;;9.98;100.00;100695.91;5074965;28;20060;-50
2022/01/10 08:33:07;;;;;;;45.88;7.53;;;;;;;10.05;100.00;100693.75;5074763;28;20059;-49
2022/01/10 08:35:35;;;;;;;47.92;6.55;;;;;;;10.06;100.00;100702.59;5074450;28;20063;-50
2022/01/10 08:38:05;;;;;;;35.28;5.75;;;;;;;10.04;100.00;100700.88;5073751;28;20067;-50
2022/01/10 08:40:33;;;;;;;33.53;4.80;;;;;;;10.06;100.00;100713.19;5074625;28;20060;-51
2022/01/10 08:43:06;;;;;;;49.50;6.85;;;;;;;10.10;100.00;100709.41;5075386;28;20059;-49
2022/01/10 08:45:34;;;;;;;45.08;6.32;;;;;;;10.13;100.00;100709.25;5075681;28;20063;-49
2022/01/10 08:48:03;;;;;;;49.92;9.07;;;;;;;10.15;100.00;100716.16;5074337;28;20075;-50
2022/01/10 08:50:31;;;;;;;58.63;7.45;;;;;;;10.12;100.00;100723.44;5074745;28;20061;-52
2022/01/10 08:52:59;;;;;;;54.83;8.80;;;;;;;10.15;100.00;100725.91;5074455;28;20512;-49
2022/01/10 08:55:29;;;;;;;58.30;8.68;;;;;;;10.21;100.00;100729.06;5074927;28;20052;-50
2022/01/10 08:57:57;;;;;;;49.90;8.32;;;;;;;10.21;100.00;100734.38;5074987;28;20056;-50
2022/01/10 09:00:26;;;;;;;56.72;8.07;;;;;;;10.23;100.00;100734.28;5074344;28;20067;-51
2022/01/10 09:02:54;;;;;;;69.28;9.15;;;;;;;10.23;100.00;100742.22;5074337;28;20061;-51
2022/01/10 09:05:22;;;;;;;58.17;7.35;;;;;;;10.27;100.00;100735.84;5074047;28;20500;-49
2022/01/10 09:07:51;;;;;;;56.08;8.30;;;;;;;10.27;100.00;100743.78;5074278;28;20052;-52
2022/01/10 09:10:20;;;;;;;56.10;7.38;;;;;;;10.29;100.00;100733.06;5075246;28;20060;-50
2022/01/10 09:12:50;;;;;;;60.63;8.13;;;;;;;10.37;100.00;100750.31;5074946;28;20443;-49
2022/01/10 09:15:18;;;;;;;62.20;8.65;;;;;;;10.33;100.00;100754.06;5074706;28;20052;-50
2022/01/10 09:17:46;;;;;;;62.67;7.70;;;;;;;10.36;100.00;100759.19;5074102;28;20504;-49
2022/01/10 09:20:14;;;;;;;61.70;8.35;;;;;;;10.37;100.00;100754.72;5074326;28;20067;-49
2022/01/10 09:22:42;;;;;;;65.55;9.50;;;;;;;10.41;100.00;100757.13;5074351;28;20056;-49
2022/01/10 09:25:11;;;;;;;72.18;7.25;;;;;;;10.43;100.00;100764.16;5075230;28;20057;-49
2022/01/10 09:27:39;;;;;;;59.42;6.95;;;;;;;10.39;100.00;100763.47;5074551;28;20527;-48
2022/01/10 09:30:10;;;;;;;55.58;7.53;;;;;;;10.46;100.00;100764.81;5074210;28;20056;-50
2022/01/10 09:32:39;;;;;;;49.13;8.87;;;;;;;10.60;100.00;100777.28;5074113;28;20057;-51
2022/01/10 09:35:08;;;;;;;60.67;7.15;;;;;;;10.66;100.00;100768.97;5074641;28;20294;-50
2022/01/10 09:37:36;;;;;;;59.88;6.60;;;;;;;10.72;100.00;100775.72;5074254;28;20056;-52
2022/01/10 09:40:07;;;;;;;50.33;7.93;;;;;;;10.69;100.00;100778.53;5073682;28;20488;-51
2022/01/10 09:42:35;;;;;;;61.15;7.13;;;;;;;10.71;100.00;100785.47;5074726;28;20057;-49
2022/01/10 09:45:05;;;;;;;61.15;8.30;;;;;;;10.73;100.00;100785.41;5073531;28;20053;-49
2022/01/10 09:47:36;;;;;;;46.42;7.82;;;;;;;10.79;100.00;100792.97;5074066;28;20052;-50
2022/01/10 09:50:08;;;;;;;60.60;8.40;;;;;;;10.81;100.00;100790.22;5076100;28;20057;-49
2022/01/10 09:52:37;;;;;;;59.78;7.05;;;;;;;10.82;100.00;100789.31;5077935;28;20547;-49
2022/01/10 09:55:06;;;;;;;50.40;7.80;;;;;;;10.86;100.00;100797.00;5077620;28;20072;-50
2022/01/10 09:57:35;;;;;;;49.63;6.10;;;;;;;10.92;100.00;100795.78;5078113;28;20078;-52
2022/01/10 10:00:04;;;;;;;61.28;6.90;;;;;;;10.96;100.00;100794.63;5077710;28;20103;-50
2022/01/10 10:02:34;;;;;;;52.13;7.45;;;;;;;11.03;100.00;100798.66;5077711;28;20064;-51
2022/01/10 10:05:05;;;;;;;47.90;7.80;;;;;;;11.05;100.00;100802.06;5078823;28;20059;-51
2022/01/10 10:07:35;;;;;;;43.65;7.95;;;;;;;11.13;100.00;100810.44;5078699;28;20063;-52
2022/01/10 10:10:07;;;;;;;55.92;7.40;;;;;;;11.08;100.00;100814.31;5079335;28;20068;-51
2022/01/10 10:12:36;;;;;;;48.15;7.50;;;;;;;11.08;100.00;100825.78;5078192;28;20057;-51
2022/01/10 10:15:06;;;;;;;68.07;8.65;;;;;;;11.08;100.00;100820.47;5077164;28;20056;-50
2022/01/10 10:17:35;;;;;;;45.55;6.97;;;;;;;11.15;100.00;100832.44;5078064;28;20404;-49
2022/01/10 10:20:08;;;;;;;54.60;7.68;;;;;;;11.20;100.00;100828.66;5077555;28;20056;-49
2022/01/10 10:22:40;;;;;;;39.25;6.63;;;;;;;11.36;100.00;100840.06;5077027;28;20522;-52
2022/01/10 10:25:09;;;;;;;35.92;6.15;;;;;;;11.44;100.00;100840.44;5077738;28;20057;-50
2022/01/10 10:27:38;;;;;;;36.60;5.82;;;;;;;11.39;100.00;100849.66;5077199;28;20057;-52
2022/01/10 10:30:16;;;;;;;43.42;6.93;;;;;;;11.48;100.00;100847.31;5076803;28;20511;-49
2022/01/10 10:32:44;;;;;;;41.25;6.90;;;;;;;11.46;100.00;100851.81;5078256;28;20455;-51
2022/01/10 10:35:15;;;;;;;39.40;5.60;;;;;;;11.42;100.00;100854.78;5077675;28;20057;-49
2022/01/10 10:37:45;;;;;;;35.42;6.63;;;;;;;11.38;100.00;100859.44;5076631;28;20500;-51
2022/01/10 10:40:15;;;;;;;43.28;5.53;;;;;;;11.37;100.00;100871.00;5077235;28;20056;-51
2022/01/10 10:42:45;;;;;;;33.80;5.78;;;;;;;11.34;100.00;100876.47;5076687;28;20056;-49
2022/01/10 10:45:14;;;;;;;30.75;4.65;;;;;;;11.25;100.00;100874.38;5077587;28;20056;-52
2022/01/10 10:47:45;;;;;;;25.13;4.75;;;;;;;11.23;100.00;100870.94;5077399;28;20056;-51
2022/01/10 10:50:14;;;;;;;31.98;5.28;;;;;;;11.24;100.00;100888.59;5077489;28;20056;-50
2022/01/10 10:52:43;;;;;;;27.30;4.75;;;;;;;11.21;100.00;100879.00;5077585;28;20439;-49
2022/01/10 10:55:12;;;;;;;35.10;5.65;;;;;;;11.21;100.00;100889.63;5077309;28;20056;-50
2022/01/10 10:57:41;;;;;;;41.70;6.50;;;;;;;11.25;100.00;100890.31;5077486;28;20067;-49
2022/01/10 11:00:11;;;;;;;29.65;7.57;;;;;;;11.20;100.00;100887.94;5076132;28;20056;-49
2022/01/10 11:02:40;;;;;;;37.65;6.25;;;;;;;11.20;100.00;100895.03;5075879;28;20056;-50
2022/01/10 11:05:09;;;;;;;31.30;6.35;;;;;;;11.17;100.00;100898.72;5077354;28;20068;-52
2022/01/10 11:07:39;;;;;;;30.90;5.35;;;;;;;11.10;100.00;100887.59;5076766;28;20385;-50
2022/01/10 11:10:16;;;;;;;19.95;4.40;;;;;;;11.16;100.00;100897.00;5076933;28;20455;-51
2022/01/10 11:12:50;;;;;;;20.60;4.65;;;;;;;11.22;100.00;100901.97;5076710;28;20078;-49
2022/01/10 11:15:19;;;;;;;26.85;4.70;;;;;;;11.26;100.00;100902.63;5076095;28;20063;-50
2022/01/10 11:17:47;;;;;;;27.38;5.70;;;;;;;11.25;100.00;100906.25;5076297;28;20056;-50
2022/01/10 11:20:17;;;;;;;19.92;4.22;;;;;;;11.25;100.00;100901.78;5076814;28;20060;-52
2022/01/10 11:22:48;;;;;;;24.20;4.53;;;;;;;11.27;100.00;100907.00;5075938;28;20526;-50
2022/01/10 11:25:22;;;;;;;22.85;4.40;;;;;;;11.34;100.00;100911.00;5075897;28;20053;-52
2022/01/10 11:27:51;;;;;;;23.52;4.20;;;;;;;11.34;100.00;100909.19;5076150;28;20508;-49
2022/01/10 11:30:32;;;;;;;19.88;4.22;;;;;;;11.34;100.00;100911.84;5076296;28;20071;-49